Time;durP1;ratioP1;P1;durP2;ratioP2;P2;SDS_P1;SDS_P2;PMS_P1;PMS_P2;Temp;Humidity;BMP_temperature;BMP_pressure;BME280_temperature;BME280_humidity;BME280_pressure;Samples;Min_cycle;Max_cycle;Signal;HPM_P1;HPM_P2
2023/02/12 00:00:00;;;;;;;37.50;30.13;;;;;;;-3.17;86.75;97420.75;5063224;28;20120;-71
2023/02/12 00:02:26;;;;;;;48.67;36.25;;;;;;;-3.18;86.89;97424.22;5061919;28;20476;-61
2023/02/12 00:04:51;;;;;;;44.63;33.78;;;;;;;-3.23;87.17;97428.53;5054897;28;20095;-60
2023/02/12 00:07:17;;;;;;;55.00;38.50;;;;;;;-3.26;87.02;97425.16;5065362;28;20056;-61
2023/02/12 00:09:42;;;;;;;44.20;34.15;;;;;;;-3.29;87.18;97427.75;5063324;28;20501;-61
2023/02/12 00:12:08;;;;;;;43.00;32.53;;;;;;;-3.33;87.66;97427.75;5065882;28;20025;-61
2023/02/12 00:14:36;;;;;;;35.83;29.55;;;;;;;-3.35;88.00;97431.25;5064908;28;20044;-61
2023/02/12 00:17:01;;;;;;;39.33;29.10;;;;;;;-3.35;88.24;97423.50;5062722;28;20411;-60
2023/02/12 00:19:26;;;;;;;39.72;30.40;;;;;;;-3.36;88.28;97426.97;5068249;28;20044;-61
2023/02/12 00:21:52;;;;;;;37.45;29.95;;;;;;;-3.38;88.42;97433.84;5047828;28;20071;-60
2023/02/12 00:24:17;;;;;;;42.97;33.08;;;;;;;-3.35;88.51;97431.25;5048457;28;20056;-61
2023/02/12 00:26:42;;;;;;;39.95;31.52;;;;;;;-3.33;87.62;97432.91;5052600;28;20040;-61
2023/02/12 00:29:09;;;;;;;40.38;31.60;;;;;;;-3.35;87.23;97428.66;5063408;28;20028;-60
2023/02/12 00:31:34;;;;;;;43.45;33.65;;;;;;;-3.38;88.26;97433.84;5062046;28;20649;-61
2023/02/12 00:34:00;;;;;;;36.72;30.33;;;;;;;-3.38;87.46;97426.13;5050609;28;20119;-61
2023/02/12 00:36:29;;;;;;;37.22;28.83;;;;;;;-3.40;88.38;97425.28;5054363;28;20103;-60
2023/02/12 00:38:55;;;;;;;35.85;25.85;;;;;;;-3.40;87.65;97420.13;5058704;28;20584;-66
2023/02/12 00:41:21;;;;;;;37.22;27.60;;;;;;;-3.41;88.29;97421.84;5054641;28;20061;-70
2023/02/12 00:43:47;;;;;;;32.47;26.25;;;;;;;-3.41;88.12;97413.28;5063648;28;20040;-70
2023/02/12 00:46:13;;;;;;;33.47;25.20;;;;;;;-3.47;88.96;97417.59;5056601;28;20032;-70
2023/02/12 00:48:39;;;;;;;32.35;24.77;;;;;;;-3.50;88.92;97409.88;5060174;28;20037;-70
2023/02/12 00:51:05;;;;;;;31.63;26.52;;;;;;;-3.49;89.14;97409.03;5055039;28;20040;-70
2023/02/12 00:53:31;;;;;;;31.80;25.55;;;;;;;-3.49;88.68;97408.19;5054923;28;20403;-70
2023/02/12 00:55:57;;;;;;;35.10;25.52;;;;;;;-3.50;90.04;97414.19;5055728;28;20040;-61
2023/02/12 00:58:22;;;;;;;31.05;25.60;;;;;;;-3.53;88.71;97409.91;5050882;28;20028;-61
2023/02/12 01:00:48;;;;;;;34.53;26.38;;;;;;;-3.49;88.37;97403.03;5056303;28;20395;-71
2023/02/12 01:03:13;;;;;;;40.88;27.42;;;;;;;-3.47;88.59;97409.03;5054268;28;20025;-71
2023/02/12 01:05:39;;;;;;;37.63;26.95;;;;;;;-3.50;89.13;97409.88;5059805;28;20106;-71
2023/02/12 01:08:04;;;;;;;36.10;27.20;;;;;;;-3.50;88.19;97414.19;5058407;28;20025;-71
2023/02/12 01:10:30;;;;;;;41.05;29.80;;;;;;;-3.52;88.11;97419.34;5055342;28;20036;-71
2023/02/12 01:12:55;;;;;;;39.45;28.52;;;;;;;-3.53;88.72;97421.97;5054627;28;20540;-71
2023/02/12 01:15:21;;;;;;;39.20;27.90;;;;;;;-3.61;90.22;97419.44;5057821;28;20037;-62
2023/02/12 01:17:47;;;;;;;43.35;28.08;;;;;;;-3.65;90.81;97425.47;5057912;28;20041;-62
2023/02/12 01:20:18;;;;;;;48.25;28.88;;;;;;;-3.65;89.80;97417.72;5061781;28;20079;-71
2023/02/12 01:22:44;;;;;;;41.33;27.70;;;;;;;-3.60;88.57;97421.16;5050175;28;20040;-71
2023/02/12 01:25:10;;;;;;;30.52;24.08;;;;;;;-3.58;89.20;97432.28;5064806;28;20033;-71
2023/02/12 01:27:36;;;;;;;34.20;24.42;;;;;;;-3.52;88.47;97419.34;5062849;28;20033;-71
2023/02/12 01:30:02;;;;;;;32.08;24.20;;;;;;;-3.53;89.55;97425.38;5056013;28;20046;-71
2023/02/12 01:32:27;;;;;;;33.95;25.40;;;;;;;-3.58;89.20;97418.53;5060350;28;20029;-71
2023/02/12 01:34:53;;;;;;;29.98;23.88;;;;;;;-3.64;90.64;97424.63;5060675;28;20115;-67
2023/02/12 01:37:18;;;;;;;30.67;24.85;;;;;;;-3.66;90.04;97428.91;5066876;28;20025;-62
2023/02/12 01:39:44;;;;;;;31.02;23.85;;;;;;;-3.65;89.03;97422.88;5060216;28;20051;-71
2023/02/12 01:42:12;;;;;;;32.88;25.45;;;;;;;-3.67;90.51;97430.63;5060652;28;20058;-71
2023/02/12 01:44:43;;;;;;;35.63;27.05;;;;;;;-3.75;90.55;97427.28;5067757;28;20091;-71
2023/02/12 01:47:17;;;;;;;32.95;24.88;;;;;;;-3.80;90.06;97424.72;5059940;28;20044;-71
2023/02/12 01:49:46;;;;;;;35.85;27.25;;;;;;;-3.81;90.62;97423.03;5058711;28;20803;-71
2023/02/12 01:52:42;;;;;;;34.30;25.85;;;;;;;-3.81;90.61;97425.59;5064303;28;20036;-71
2023/02/12 01:55:09;;;;;;;32.65;25.83;;;;;;;-3.80;90.80;97427.31;5063567;28;20037;-61
2023/02/12 01:57:41;;;;;;;37.33;25.95;;;;;;;-3.81;90.48;97424.72;5059111;28;21589;-66
2023/02/12 02:00:10;;;;;;;33.10;25.85;;;;;;;-3.86;90.76;97422.22;5069849;28;20147;-66
2023/02/12 02:02:38;;;;;;;32.97;25.48;;;;;;;-3.89;90.99;97422.19;5065483;28;20041;-66
2023/02/12 02:05:04;;;;;;;37.63;25.52;;;;;;;-3.89;90.57;97419.63;5066902;28;20037;-66
2023/02/12 02:07:30;;;;;;;37.45;26.65;;;;;;;-3.91;92.23;97414.50;5062459;28;20090;-66
2023/02/12 02:09:56;;;;;;;35.45;27.98;;;;;;;-3.93;93.09;97407.66;5057027;28;20041;-67
2023/02/12 02:15:07;;;;;;;35.10;26.95;;;;;;;-3.97;93.03;97404.25;5056097;28;20036;-70
2023/02/12 02:17:57;;;;;;;38.40;27.58;;;;;;;-3.98;93.14;97400.00;5062569;28;20048;-71
2023/02/12 02:21:00;;;;;;;29.70;23.30;;;;;;;-3.97;93.22;97403.41;5062902;28;20051;-71
2023/02/12 02:24:03;;;;;;;31.83;25.30;;;;;;;-4.01;93.68;97394.00;5056232;28;20396;-70
2023/02/12 02:26:51;;;;;;;27.13;22.50;;;;;;;-4.04;93.65;97390.59;5055071;28;20037;-72
2023/02/12 02:29:50;;;;;;;34.30;24.40;;;;;;;-4.03;92.80;97392.28;5046498;28;20498;-71
2023/02/12 02:32:23;;;;;;;36.10;25.20;;;;;;;-4.04;92.45;97385.44;5066850;28;20040;-71
2023/02/12 02:35:13;;;;;;;33.75;24.85;;;;;;;-4.00;93.23;97390.56;5053248;28;20045;-71
2023/02/12 02:37:42;;;;;;;31.55;25.25;;;;;;;-3.98;93.72;97399.13;5060880;28;20052;-66
2023/02/12 02:40:13;;;;;;;33.45;27.13;;;;;;;-4.03;93.41;97392.28;5053458;28;20156;-65
2023/02/12 02:43:00;;;;;;;31.58;24.80;;;;;;;-4.12;94.13;97382.03;5054170;28;20044;-66
2023/02/12 02:45:28;;;;;;;33.80;26.13;;;;;;;-4.09;94.05;97381.19;5061155;28;20068;-65
2023/02/12 02:47:59;;;;;;;35.15;26.73;;;;;;;-4.10;94.35;97380.31;5058361;28;20521;-66
2023/02/12 02:50:28;;;;;;;36.55;26.38;;;;;;;-4.13;94.26;97377.75;5066490;28;20045;-66
2023/02/12 02:53:03;;;;;;;32.65;26.25;;;;;;;-4.17;94.64;97374.38;5069274;28;20045;-66
2023/02/12 02:55:35;;;;;;;39.20;29.50;;;;;;;-4.15;94.32;97374.34;5067005;28;20041;-61
2023/02/12 02:58:24;;;;;;;36.72;27.63;;;;;;;-4.18;94.75;97372.66;5057618;28;20043;-62
2023/02/12 03:01:04;;;;;;;39.78;29.80;;;;;;;-4.21;94.32;97362.38;5056492;28;20036;-61
2023/02/12 03:03:42;;;;;;;40.00;28.98;;;;;;;-4.20;94.02;97363.25;5061925;28;20450;-62
2023/02/12 03:06:31;;;;;;;43.08;28.80;;;;;;;-4.20;93.80;97368.38;5061795;28;20505;-62
2023/02/12 03:09:08;;;;;;;38.78;26.45;;;;;;;-4.24;94.30;97367.53;5056267;28;20029;-61
2023/02/12 03:11:34;;;;;;;38.58;28.50;;;;;;;-4.22;94.46;97370.13;5061492;28;20032;-71
2023/02/12 03:14:35;;;;;;;36.33;27.02;;;;;;;-4.25;94.65;97375.28;5064071;28;20032;-72
2023/02/12 03:17:09;;;;;;;39.40;28.73;;;;;;;-4.29;95.50;97377.00;5055470;28;20056;-73
2023/02/12 03:19:54;;;;;;;39.95;28.65;;;;;;;-4.29;94.93;97378.75;5056410;28;20029;-73
2023/02/12 03:22:39;;;;;;;40.13;27.52;;;;;;;-4.32;95.21;97382.19;5050818;28;20139;-71
2023/02/12 03:25:13;;;;;;;44.20;28.93;;;;;;;-4.37;96.16;97392.47;5065070;28;20064;-72
2023/02/12 03:27:44;;;;;;;41.92;27.83;;;;;;;-4.38;95.73;97387.38;5057756;28;20280;-72
2023/02/12 03:30:11;;;;;;;36.95;26.45;;;;;;;-4.40;95.33;97377.09;5065306;28;20040;-66
2023/02/12 03:33:06;;;;;;;45.28;30.17;;;;;;;-4.39;94.56;97373.63;5058538;28;20025;-70
2023/02/12 03:35:37;;;;;;;46.15;30.02;;;;;;;-4.38;95.09;97383.06;5053839;28;20507;-65
2023/02/12 03:38:20;;;;;;;52.15;33.72;;;;;;;-4.40;95.19;97381.38;5057262;28;20563;-66
2023/02/12 03:40:55;;;;;;;58.65;32.60;;;;;;;-4.41;95.46;97372.78;5057793;28;20056;-66
2023/02/12 03:43:26;;;;;;;58.63;34.80;;;;;;;-4.43;96.04;97369.38;5063148;28;20028;-65
2023/02/12 03:46:16;;;;;;;61.35;35.00;;;;;;;-4.48;96.35;97373.72;5062982;28;20111;-66
2023/02/12 03:48:55;;;;;;;64.78;36.25;;;;;;;-4.52;97.38;97377.16;5056931;28;20067;-66
2023/02/12 03:51:37;;;;;;;57.95;34.53;;;;;;;-4.54;95.88;97369.44;5052550;28;20021;-61
2023/02/12 03:54:06;;;;;;;65.57;36.35;;;;;;;-4.48;95.78;97378.84;5066246;28;20060;-62
2023/02/12 03:56:46;;;;;;;58.15;33.60;;;;;;;-4.51;95.82;97373.72;5048333;28;20039;-62
2023/02/12 03:59:12;;;;;;;57.15;34.42;;;;;;;-4.55;96.26;97365.16;5058473;28;20028;-62
2023/02/12 04:01:37;;;;;;;55.20;32.13;;;;;;;-4.55;96.68;97364.28;5046360;28;20086;-62
2023/02/12 04:04:06;;;;;;;54.17;32.75;;;;;;;-4.57;96.75;97364.31;5069439;28;20032;-61
2023/02/12 04:06:32;;;;;;;53.00;32.65;;;;;;;-4.61;97.51;97376.31;5061010;28;20041;-62
2023/02/12 04:09:02;;;;;;;54.80;32.90;;;;;;;-4.64;97.71;97384.06;5058291;28;20037;-60
2023/02/12 04:11:46;;;;;;;54.03;33.45;;;;;;;-4.65;97.07;97384.91;5055840;28;20514;-64
2023/02/12 04:14:35;;;;;;;44.10;30.05;;;;;;;-4.61;96.79;97380.63;5062592;28;20175;-71
2023/02/12 04:17:39;;;;;;;42.53;27.98;;;;;;;-4.61;96.60;97378.06;5057471;28;20063;-71
2023/02/12 04:20:16;;;;;;;33.58;24.23;;;;;;;-4.58;96.49;97377.16;5054714;28;20033;-71
2023/02/12 04:22:53;;;;;;;40.15;26.50;;;;;;;-4.61;96.91;97383.19;5062697;28;20036;-71
2023/02/12 04:25:42;;;;;;;41.15;26.85;;;;;;;-4.60;97.03;97387.47;5053255;28;20779;-71
2023/02/12 04:28:16;;;;;;;39.88;27.50;;;;;;;-4.58;96.89;97383.19;5060409;28;20037;-61
2023/02/12 04:30:54;;;;;;;68.97;37.10;;;;;;;-4.57;96.37;97371.16;5059556;28;20033;-72
2023/02/12 04:33:23;;;;;;;84.07;43.85;;;;;;;-4.58;96.92;97378.03;5059626;28;20559;-72
2023/02/12 04:35:58;;;;;;;64.72;39.33;;;;;;;-4.62;96.82;97377.19;5057111;28;20049;-72
2023/02/12 04:38:58;;;;;;;74.78;40.28;;;;;;;-4.66;97.01;97366.91;5039822;28;20043;-72
2023/02/12 04:41:24;;;;;;;84.65;45.10;;;;;;;-4.69;97.67;97365.25;5031946;28;20075;-72
2023/02/12 04:43:50;;;;;;;74.32;39.75;;;;;;;-4.71;97.33;97366.97;5059201;28;20063;-72
2023/02/12 04:46:15;;;;;;;84.90;44.50;;;;;;;-4.73;97.80;97363.56;5061189;28;20032;-72
2023/02/12 04:48:50;;;;;;;82.90;47.47;;;;;;;-4.75;97.76;97362.72;5058079;28;20040;-70
2023/02/12 04:51:15;;;;;;;75.05;40.05;;;;;;;-4.75;97.54;97373.00;5059960;28;20029;-71
2023/02/12 04:53:40;;;;;;;68.70;39.17;;;;;;;-4.76;97.02;97359.28;5062847;28;20403;-71
2023/02/12 04:56:10;;;;;;;66.53;36.78;;;;;;;-4.75;97.43;97366.13;5063912;28;20568;-71
2023/02/12 04:58:36;;;;;;;69.57;41.22;;;;;;;-4.73;97.93;97373.84;5060886;28;20506;-71
2023/02/12 05:01:02;;;;;;;74.75;41.88;;;;;;;-4.75;97.70;97371.25;5057883;28;20032;-70
2023/02/12 05:03:27;;;;;;;61.45;37.47;;;;;;;-4.72;96.78;97369.53;5063958;28;20582;-70
2023/02/12 05:05:52;;;;;;;44.08;30.90;;;;;;;-4.73;97.89;97366.13;5065244;28;20112;-70
2023/02/12 05:08:18;;;;;;;43.03;29.63;;;;;;;-4.73;98.28;97368.69;5059963;28;20387;-70
2023/02/12 05:10:43;;;;;;;45.40;29.98;;;;;;;-4.73;98.12;97373.84;5061328;28;20399;-65
2023/02/12 05:13:09;;;;;;;43.22;29.02;;;;;;;-4.74;97.74;97372.13;5061525;28;20510;-65
2023/02/12 05:15:37;;;;;;;41.25;28.67;;;;;;;-4.76;98.23;97376.38;5067338;28;20041;-65
2023/02/12 05:18:03;;;;;;;41.20;27.90;;;;;;;-4.80;97.62;97369.56;5063235;28;20036;-65
2023/02/12 05:20:28;;;;;;;38.97;28.08;;;;;;;-4.79;98.07;97376.41;5060050;28;20029;-65
2023/02/12 05:22:54;;;;;;;39.50;26.90;;;;;;;-4.80;98.11;97382.41;5063810;28;20037;-65
2023/02/12 05:25:19;;;;;;;36.75;25.88;;;;;;;-4.84;98.33;97383.28;5067041;28;20029;-65
2023/02/12 05:27:44;;;;;;;37.88;24.80;;;;;;;-4.85;98.09;97387.59;5062479;28;20040;-60
2023/02/12 05:30:10;;;;;;;36.75;26.60;;;;;;;-4.86;98.83;97391.03;5062454;28;20080;-72
2023/02/12 05:32:35;;;;;;;34.03;24.17;;;;;;;-4.90;98.36;97392.72;5068771;28;20494;-71
2023/02/12 05:35:01;;;;;;;39.72;31.00;;;;;;;-4.92;98.57;97394.47;5067952;28;20148;-71
2023/02/12 05:37:26;;;;;;;43.42;34.00;;;;;;;-4.90;98.61;97390.16;5072349;28;20112;-72
2023/02/12 05:39:52;;;;;;;35.63;29.15;;;;;;;-4.92;98.55;97394.47;5065980;28;20056;-72
2023/02/12 05:42:18;;;;;;;36.90;29.98;;;;;;;-4.93;98.35;97392.75;5063027;28;20414;-72
2023/02/12 05:44:43;;;;;;;36.58;28.88;;;;;;;-4.96;98.93;97399.59;5062618;28;20020;-72
2023/02/12 05:47:08;;;;;;;42.28;32.67;;;;;;;-4.99;98.99;97390.19;5059126;28;20454;-72
2023/02/12 05:49:34;;;;;;;43.58;36.35;;;;;;;-4.96;99.12;97392.75;5061313;28;20116;-65
2023/02/12 05:51:59;;;;;;;40.60;33.80;;;;;;;-4.93;98.91;97382.47;5060957;28;20083;-65
2023/02/12 05:54:24;;;;;;;42.08;32.92;;;;;;;-4.94;98.47;97385.91;5061048;28;20523;-65
2023/02/12 05:56:50;;;;;;;29.85;25.20;;;;;;;-4.92;98.16;97389.31;5058606;28;20108;-65
2023/02/12 05:59:18;;;;;;;31.25;25.92;;;;;;;-4.92;97.58;97381.63;5067102;28;20697;-65
2023/02/12 06:01:45;;;;;;;33.85;27.65;;;;;;;-4.92;97.80;97378.16;5062408;28;20487;-65
2023/02/12 06:04:18;;;;;;;28.75;24.45;;;;;;;-4.87;97.69;97380.72;5065179;28;20059;-66
2023/02/12 06:06:44;;;;;;;28.00;24.80;;;;;;;-4.79;98.44;97378.97;5059346;28;20032;-72
2023/02/12 06:09:11;;;;;;;27.85;24.85;;;;;;;-4.76;98.59;97378.97;5065323;28;20036;-70
2023/02/12 06:11:37;;;;;;;27.25;24.45;;;;;;;-4.80;98.22;97384.97;5055905;28;20107;-69
2023/02/12 06:14:04;;;;;;;25.45;22.73;;;;;;;-4.86;98.53;97388.44;5056760;28;20064;-70
2023/02/12 06:16:29;;;;;;;22.98;20.58;;;;;;;-4.89;98.65;97389.31;5061737;28;20032;-70
2023/02/12 06:18:56;;;;;;;26.50;21.08;;;;;;;-4.89;98.67;97373.88;5070975;28;20090;-71
2023/02/12 06:21:22;;;;;;;22.45;20.08;;;;;;;-4.96;99.03;97387.63;5061862;28;20039;-70
2023/02/12 06:23:49;;;;;;;21.08;18.40;;;;;;;-4.95;100.00;97385.91;5065041;28;20025;-62
2023/02/12 06:26:15;;;;;;;22.20;19.92;;;;;;;-4.98;99.32;97381.63;5062381;28;20538;-70
2023/02/12 06:28:40;;;;;;;19.75;17.65;;;;;;;-4.94;99.17;97374.75;5059761;28;20037;-71
2023/02/12 06:31:18;;;;;;;17.98;16.17;;;;;;;-4.90;99.98;97364.47;5058700;28;20083;-72
2023/02/12 06:33:43;;;;;;;17.95;16.15;;;;;;;-4.91;99.88;97357.63;5060190;28;20076;-72
2023/02/12 06:36:08;;;;;;;18.60;16.70;;;;;;;-4.92;100.00;97368.75;5063897;28;20056;-72
2023/02/12 06:38:34;;;;;;;20.55;17.95;;;;;;;-4.94;99.83;97365.34;5067473;28;20044;-72
2023/02/12 06:41:03;;;;;;;20.38;16.63;;;;;;;-4.99;99.93;97366.22;5060747;28;20431;-73
2023/02/12 06:43:28;;;;;;;24.23;17.20;;;;;;;-4.99;99.59;97366.22;5064450;28;20037;-71
2023/02/12 06:45:53;;;;;;;17.48;15.65;;;;;;;-4.98;100.00;97373.91;5059171;28;20036;-71
2023/02/12 06:48:19;;;;;;;16.55;14.40;;;;;;;-4.96;100.00;97385.06;5059653;28;20087;-73
2023/02/12 06:50:44;;;;;;;16.05;14.43;;;;;;;-4.96;99.71;97379.91;5062733;28;20287;-73
2023/02/12 06:53:09;;;;;;;16.05;14.38;;;;;;;-4.96;99.41;97371.34;5059989;28;20029;-73
2023/02/12 06:55:35;;;;;;;16.33;14.68;;;;;;;-4.96;99.04;97374.78;5060393;28;20039;-72
2023/02/12 06:58:00;;;;;;;17.98;15.27;;;;;;;-4.96;99.60;97372.22;5061173;28;20044;-72
2023/02/12 07:00:26;;;;;;;16.77;15.05;;;;;;;-4.93;99.77;97381.59;5064399;28;20031;-72
2023/02/12 07:02:53;;;;;;;15.70;13.98;;;;;;;-4.92;99.03;97388.44;5067489;28;20462;-60
2023/02/12 07:05:19;;;;;;;17.23;15.13;;;;;;;-4.91;98.95;97383.31;5068532;28;20390;-69
2023/02/12 07:07:44;;;;;;;21.92;19.35;;;;;;;-4.86;98.69;97379.88;5065517;28;20033;-70
2023/02/12 07:10:10;;;;;;;26.30;22.23;;;;;;;-4.80;98.89;97387.56;5059477;28;20106;-70
2023/02/12 07:12:35;;;;;;;22.25;19.92;;;;;;;-4.77;99.11;97387.53;5062629;28;20040;-69
2023/02/12 07:15:01;;;;;;;26.15;23.30;;;;;;;-4.78;99.11;97393.53;5067334;28;20032;-68
2023/02/12 07:17:29;;;;;;;28.90;24.15;;;;;;;-4.73;98.05;97396.09;5062357;28;20052;-71
2023/02/12 07:19:55;;;;;;;25.45;22.65;;;;;;;-4.71;97.85;97395.25;5059128;28;20511;-71
2023/02/12 07:22:21;;;;;;;25.13;22.40;;;;;;;-4.65;98.34;97396.91;5061780;28;20379;-64
2023/02/12 07:24:47;;;;;;;27.00;24.17;;;;;;;-4.59;97.99;97386.63;5066115;28;20087;-63
2023/02/12 07:27:13;;;;;;;26.65;23.58;;;;;;;-4.55;98.43;97388.31;5061692;28;20071;-62
2023/02/12 07:29:38;;;;;;;28.80;24.50;;;;;;;-4.54;97.55;97387.44;5047812;28;20581;-63
2023/02/12 07:32:04;;;;;;;26.92;24.15;;;;;;;-4.49;97.83;97392.56;5058133;28;20060;-63
2023/02/12 07:34:29;;;;;;;27.92;24.95;;;;;;;-4.49;97.97;97392.56;5060545;28;20529;-63
2023/02/12 07:36:54;;;;;;;26.80;24.10;;;;;;;-4.41;97.43;97395.09;5062491;28;20040;-64
2023/02/12 07:39:20;;;;;;;25.85;23.17;;;;;;;-4.38;97.76;97389.94;5064561;28;20024;-63
2023/02/12 07:41:45;;;;;;;24.15;21.67;;;;;;;-4.38;97.62;97389.94;5067792;28;20040;-72
2023/02/12 07:44:11;;;;;;;28.95;25.85;;;;;;;-4.39;97.41;97394.22;5060732;28;20482;-70
2023/02/12 07:46:44;;;;;;;36.05;32.22;;;;;;;-4.35;97.65;97400.22;5061793;28;20067;-71
2023/02/12 07:49:13;;;;;;;45.22;40.35;;;;;;;-4.29;96.43;97409.63;5055546;28;20039;-71
2023/02/12 07:51:39;;;;;;;66.78;49.88;;;;;;;-4.23;96.88;97414.72;5066740;28;20045;-71
2023/02/12 07:54:04;;;;;;;55.17;44.53;;;;;;;-4.20;96.27;97417.25;5058111;28;20036;-70
2023/02/12 07:56:34;;;;;;;57.75;46.40;;;;;;;-4.16;95.62;97413.81;5060962;28;20067;-71
2023/02/12 07:59:01;;;;;;;54.28;44.55;;;;;;;-4.14;95.67;97424.09;5065898;28;20522;-71
2023/02/12 08:01:32;;;;;;;49.53;41.50;;;;;;;-4.11;96.10;97417.19;5068164;28;20021;-74
2023/02/12 08:04:00;;;;;;;51.03;41.05;;;;;;;-4.07;96.78;97418.91;5067552;28;20079;-71
2023/02/12 08:06:28;;;;;;;63.40;48.50;;;;;;;-4.05;95.37;97413.72;5050064;28;20709;-71
2023/02/12 08:08:55;;;;;;;63.63;46.97;;;;;;;-3.99;95.51;97425.72;5067435;28;20093;-70
2023/02/12 08:11:22;;;;;;;47.03;35.78;;;;;;;-3.90;95.95;97428.22;5068477;28;20036;-71
2023/02/12 08:13:48;;;;;;;47.88;33.65;;;;;;;-3.79;95.94;97425.56;5065823;28;20030;-71
2023/02/12 08:16:17;;;;;;;46.38;36.80;;;;;;;-3.79;96.67;97423.00;5059172;28;20029;-70
2023/02/12 08:18:42;;;;;;;52.03;37.90;;;;;;;-3.82;96.77;97429.03;5048882;28;20028;-71
2023/02/12 08:21:14;;;;;;;49.05;37.08;;;;;;;-3.84;96.18;97427.31;5061058;28;20112;-64
2023/02/12 08:23:40;;;;;;;53.08;37.22;;;;;;;-3.81;95.92;97428.16;5048246;28;20502;-75
2023/02/12 08:26:10;;;;;;;45.85;35.53;;;;;;;-3.74;95.69;97424.66;5050047;28;20071;-76
2023/02/12 08:28:38;;;;;;;49.60;35.00;;;;;;;-3.70;95.78;97432.38;5068194;28;20116;-76
2023/02/12 08:31:06;;;;;;;45.67;35.13;;;;;;;-3.66;95.61;97436.63;5051445;28;20036;-77
2023/02/12 08:33:32;;;;;;;45.30;35.60;;;;;;;-3.68;96.22;97439.22;5048294;28;20021;-75
2023/02/12 08:36:20;;;;;;;55.53;45.13;;;;;;;-3.67;94.92;97440.06;5064835;28;20032;-76
2023/02/12 08:38:47;;;;;;;59.50;45.78;;;;;;;-3.61;95.18;97437.47;5067314;28;20040;-69
2023/02/12 08:41:15;;;;;;;61.00;46.22;;;;;;;-3.58;95.83;97437.44;5067983;28;20028;-68
2023/02/12 08:43:41;;;;;;;57.13;42.97;;;;;;;-3.42;95.89;97425.28;5067160;28;20032;-74
2023/02/12 08:46:10;;;;;;;49.60;41.90;;;;;;;-2.95;96.34;97427.41;5066932;28;20029;-73
2023/02/12 08:48:35;;;;;;;55.47;42.75;;;;;;;-2.36;94.71;97421.56;5061331;28;20051;-74
2023/02/12 08:51:18;;;;;;;58.42;47.22;;;;;;;-1.76;92.37;97423.31;5067272;28;20044;-74
2023/02/12 08:53:46;;;;;;;55.75;45.70;;;;;;;-1.22;90.11;97418.97;5067139;28;20036;-73
2023/02/12 08:56:14;;;;;;;57.00;42.78;;;;;;;-0.78;87.11;97416.47;5058246;28;20047;-74
2023/02/12 08:58:39;;;;;;;37.42;31.25;;;;;;;-0.42;85.54;97409.75;5049428;28;20119;-72
2023/02/12 09:01:14;;;;;;;29.83;24.88;;;;;;;-0.11;85.11;97412.53;5066409;28;20290;-62
2023/02/12 09:03:39;;;;;;;26.95;22.27;;;;;;;0.08;84.40;97407.78;5061556;28;20494;-62
2023/02/12 09:06:06;;;;;;;21.48;17.02;;;;;;;0.33;81.74;97411.53;5060671;28;20091;-62
2023/02/12 09:08:32;;;;;;;17.35;15.18;;;;;;;0.60;81.33;97409.19;5048211;28;20083;-62
2023/02/12 09:10:57;;;;;;;20.17;17.73;;;;;;;0.80;79.66;97408.66;5055127;28;20044;-62
2023/02/12 09:13:23;;;;;;;18.35;16.40;;;;;;;1.04;77.16;97406.31;5067311;28;20119;-61
2023/02/12 09:15:49;;;;;;;24.08;20.55;;;;;;;1.19;76.88;97402.44;5049573;28;20044;-62
2023/02/12 09:18:14;;;;;;;25.58;17.80;;;;;;;1.32;76.32;97403.81;5067483;28;20452;-74
2023/02/12 09:20:42;;;;;;;14.10;12.77;;;;;;;1.39;75.23;97396.72;5067082;28;20040;-64
2023/02/12 09:23:09;;;;;;;12.55;11.35;;;;;;;1.53;74.13;97401.53;5062718;28;20037;-63
2023/02/12 09:25:41;;;;;;;13.73;11.05;;;;;;;1.68;72.38;97390.69;5047512;28;20710;-63
2023/02/12 09:28:07;;;;;;;16.63;12.45;;;;;;;1.86;71.74;97388.44;5060516;28;20088;-63
2023/02/12 09:30:32;;;;;;;17.40;13.27;;;;;;;2.12;71.61;97387.63;5059544;28;20115;-63
2023/02/12 09:32:58;;;;;;;13.98;10.98;;;;;;;2.31;69.70;97384.47;5066249;28;20073;-63
2023/02/12 09:35:23;;;;;;;9.98;8.18;;;;;;;2.53;69.74;97388.97;5066683;28;20044;-63
2023/02/12 09:37:51;;;;;;;10.65;8.57;;;;;;;2.77;68.44;97383.84;5065996;28;20024;-63
2023/02/12 09:41:05;;;;;;;9.18;7.88;;;;;;;3.00;64.81;97376.09;5067290;28;20044;-74
2023/02/12 09:43:51;;;;;;;7.95;7.25;;;;;;;3.22;61.89;97383.13;5044019;28;20032;-75
2023/02/12 09:46:31;;;;;;;9.85;8.73;;;;;;;3.54;60.58;97373.31;5056412;28;20044;-72
2023/02/12 09:49:31;;;;;;;10.32;8.40;;;;;;;3.90;60.75;97369.38;5045053;28;20050;-74
2023/02/12 09:51:57;;;;;;;9.02;8.13;;;;;;;4.28;59.88;97367.00;5057685;28;20571;-74
2023/02/12 09:54:37;;;;;;;10.85;8.25;;;;;;;4.61;59.64;97364.84;5055622;28;20025;-75
2023/02/12 09:57:13;;;;;;;10.07;8.57;;;;;;;4.86;58.13;97368.13;5063383;28;20040;-71
2023/02/12 10:00:04;;;;;;;10.18;8.43;;;;;;;5.20;56.45;97363.19;5055063;28;20060;-74
2023/02/12 10:02:29;;;;;;;11.20;9.57;;;;;;;5.48;57.50;97361.13;5059475;28;20119;-71
2023/02/12 10:04:55;;;;;;;12.70;9.73;;;;;;;5.52;53.63;97363.50;5063827;28;20152;-72
2023/02/12 10:07:42;;;;;;;11.80;9.70;;;;;;;5.50;51.95;97360.13;5071820;28;20039;-72
2023/02/12 10:10:19;;;;;;;9.60;8.55;;;;;;;5.73;52.86;97364.31;5069620;28;20033;-72
2023/02/12 10:13:06;;;;;;;10.68;9.57;;;;;;;5.73;52.83;97369.53;5065358;28;20400;-71
2023/02/12 10:15:37;;;;;;;13.45;10.60;;;;;;;5.83;52.07;97366.50;5060427;28;20391;-70
2023/02/12 10:18:15;;;;;;;13.40;11.98;;;;;;;5.77;51.26;97365.03;5058949;28;20115;-71
2023/02/12 10:20:49;;;;;;;19.58;17.10;;;;;;;5.76;49.71;97357.25;5058452;28;20029;-73
2023/02/12 10:23:44;;;;;;;18.65;16.65;;;;;;;5.88;49.69;97369.75;5058252;28;20041;-74
2023/02/12 10:26:17;;;;;;;21.35;18.75;;;;;;;5.95;51.05;97363.31;5056739;28;20041;-73
2023/02/12 10:28:43;;;;;;;19.73;17.50;;;;;;;6.10;49.84;97367.00;5057165;28;20029;-72
2023/02/12 10:31:18;;;;;;;19.80;16.60;;;;;;;6.18;50.02;97365.78;5059160;28;20025;-74
2023/02/12 10:33:47;;;;;;;20.95;18.13;;;;;;;6.39;48.88;97369.97;5061098;28;20048;-74
2023/02/12 10:36:35;;;;;;;19.95;16.65;;;;;;;6.61;48.79;97371.53;5063661;28;20033;-67
2023/02/12 10:39:11;;;;;;;15.95;14.23;;;;;;;6.81;47.90;97360.09;5062138;28;20155;-64
2023/02/12 10:41:46;;;;;;;17.20;15.40;;;;;;;7.15;46.43;97363.59;5061097;28;20494;-64
2023/02/12 10:44:11;;;;;;;22.65;16.45;;;;;;;7.34;45.19;97360.00;5057472;28;20040;-64
2023/02/12 10:46:37;;;;;;;18.00;16.02;;;;;;;7.59;44.13;97350.84;5063996;28;20406;-64
2023/02/12 10:49:04;;;;;;;20.50;18.30;;;;;;;7.62;44.12;97350.66;5060860;28;20092;-63
2023/02/12 10:52:07;;;;;;;20.38;18.20;;;;;;;7.68;42.65;97350.34;5053420;28;20144;-63
2023/02/12 10:54:39;;;;;;;20.20;15.82;;;;;;;7.83;42.85;97346.03;5055208;28;20080;-61
2023/02/12 10:57:28;;;;;;;20.52;17.23;;;;;;;7.83;43.01;97343.44;5068579;28;20032;-64
2023/02/12 11:00:14;;;;;;;19.75;14.07;;;;;;;7.83;43.18;97339.94;5051183;28;20064;-63
2023/02/12 11:02:59;;;;;;;18.23;14.80;;;;;;;8.21;42.22;97336.13;5046076;28;20055;-64
2023/02/12 11:05:27;;;;;;;18.95;14.93;;;;;;;8.29;42.80;97339.16;5047145;28;20045;-64
2023/02/12 11:07:53;;;;;;;17.23;14.55;;;;;;;8.36;42.58;97337.03;5051390;28;20039;-62
2023/02/12 11:10:44;;;;;;;20.13;15.75;;;;;;;8.73;41.94;97322.66;5059439;28;20438;-62
2023/02/12 11:13:25;;;;;;;16.98;15.20;;;;;;;8.87;41.95;97318.38;5062216;28;20046;-69
2023/02/12 11:15:51;;;;;;;19.10;16.88;;;;;;;9.06;41.40;97314.63;5065734;28;20036;-71
2023/02/12 11:18:24;;;;;;;19.13;17.13;;;;;;;8.94;40.28;97313.56;5060252;28;20044;-62
2023/02/12 11:21:00;;;;;;;19.85;17.80;;;;;;;8.98;39.80;97307.22;5063420;28;20031;-63
2023/02/12 11:23:26;;;;;;;21.25;18.55;;;;;;;9.10;39.81;97308.28;5063723;28;20048;-62
2023/02/12 11:26:25;;;;;;;19.95;16.85;;;;;;;9.15;39.14;97307.03;5063842;28;20071;-63
2023/02/12 11:28:58;;;;;;;17.95;15.90;;;;;;;9.59;40.49;97305.25;5037830;28;20064;-63
2023/02/12 11:31:28;;;;;;;18.90;16.90;;;;;;;9.97;38.89;97293.22;5052122;28;20523;-63
2023/02/12 11:34:29;;;;;;;22.77;17.52;;;;;;;10.13;37.89;97297.50;5062792;28;20076;-69
2023/02/12 11:36:55;;;;;;;16.88;15.02;;;;;;;10.30;38.35;97286.72;4979788;28;20061;-62
2023/02/12 11:39:26;;;;;;;21.10;17.63;;;;;;;10.19;37.27;97291.81;5053406;28;20043;-61